Portsmouth, NH

11:36 AM EDT on April 28, 2015 (GMT -0400)
Maplewood Avenue | | Change Station
CLOSE
Current Station
Personal Weather Station
Location: Portsmouth, NH
Elevation: 60 ft
Nearby Weather Stations

Elev 60 ft 43.08 °N, 70.77 °W | Updated 25 seconds ago

Scattered Clouds
Scattered Clouds
53.6 °F
Feels Like 53.6 °F
N
5.0
Wind Variable Wind from NE
Gusts 9.0 mph

Today
High -- | Low -- °F
--% Chance of Precip.
Yesterday
High -- | Low -- °F
Precip. -- in
5:41 AM 7:40 PM
Waxing Gibbous, 74% visible
Pressure 29.75 in
Visibility 10.0 miles
Clouds Scattered Clouds 4700 ft
Scattered Clouds 5500 ft
Dew Point 35 °F
Humidity 49%
Rainfall 0.00 in
Snow Depth Not available.
UV 7 out of 12
Pollen 7.80 out of 12
Air Quality Not available.
Flu Activity Regional
METAR KPSM 281458Z 33017G20KT 10SM SCT047 SCT055 12/M01 A2974 RMK AO2A SLP073 T01171010 58003

More Conditions Fewer Conditions

Pressure 29.75 in
Visibility 10.0 miles
Clouds Scattered Clouds 4700 ft
Scattered Clouds 5500 ft
Dew Point 35 °F
Humidity 49%
Rainfall 0.00 in
Snow Depth Not available.
UV 7 out of 12
Pollen 7.80 out of 12
Air Quality Not available.
Flu Activity Regional
METAR KPSM 281458Z 33017G20KT 10SM SCT047 SCT055 12/M01 A2974 RMK AO2A SLP073 T01171010 58003

More Conditions Fewer Conditions

10-Day Weather Forecast

Almanac

Astronomy

Apr. 28, 2015 Rise Set
Actual Time
Civil Twilight
Nautical Twilight
Astronomical Twilight
Moon
Length of Visible Light
Length of Day
Tomorrow will be .
, % of the Moon is Illuminated

Today's Extremes

State Highs State Lows

Community

WunderPhotos

Upload Photos

1,817,675 photos uploaded!

WunderBlogs® & News

Nearby

Air Quality

  Air Quality AQ Index Pollutant
Not available.

Snow Depth

Station Depth Elevation

Earthquake Activity

City Distance Mag. Time & Date
Minimum magnitude displayed is 2.5.

Coastal Water Temperatures

Place Temperature

Stations

Nearby Weather Stations

Station Location Temp. Windchill Dew Point Humidity Wind Precip. Elev Updated Type